Time;durP1;ratioP1;P1;durP2;ratioP2;P2;SDS_P1;SDS_P2;PMS_P1;PMS_P2;Temp;Humidity;BMP_temperature;BMP_pressure;BME280_temperature;BME280_humidity;BME280_pressure;Samples;Min_cycle;Max_cycle;Signal;HPM_P1;HPM_P2
2022/02/24 00:01:12;;;;;;;4.23;2.40;;;7.70;71.40;;;7.83;58.95;98036.63;6235584;23;20016;-39
2022/02/24 00:03:40;;;;;;;4.73;2.50;;;7.70;71.30;;;7.81;58.77;98027.97;6210333;23;20019;-39
2022/02/24 00:06:08;;;;;;;5.33;2.53;;;7.70;71.40;;;7.77;58.89;98030.06;6237293;23;20020;-39
2022/02/24 00:08:36;;;;;;;4.77;2.90;;;7.70;71.50;;;7.75;58.75;98021.41;6237272;23;20662;-39
2022/02/24 00:11:04;;;;;;;4.23;2.97;;;7.70;71.30;;;7.72;58.93;98016.38;6235679;23;20023;-39
2022/02/24 00:13:32;;;;;;;4.37;2.40;;;7.70;71.40;;;7.76;58.72;98017.78;6208698;23;20194;-38
2022/02/24 00:16:00;;;;;;;5.23;2.60;;;7.70;71.40;;;7.73;59.13;98020.69;6235425;23;20049;-39
2022/02/24 00:18:29;;;;;;;3.37;2.73;;;7.70;71.40;;;7.74;58.90;98027.69;6235920;23;20210;-38
2022/02/24 00:20:57;;;;;;;4.47;2.60;;;7.70;71.40;;;7.72;59.06;98021.69;6236056;23;20020;-39
2022/02/24 00:23:25;;;;;;;3.80;2.57;;;7.70;71.30;;;7.76;58.83;98024.91;6235895;23;20024;-38
2022/02/24 00:25:53;;;;;;;3.43;2.53;;;7.70;71.40;;;7.75;58.92;98016.09;6233575;23;20322;-38
2022/02/24 00:28:21;;;;;;;5.20;2.43;;;7.70;71.30;;;7.77;58.85;98018.63;6235664;23;20233;-38
2022/02/24 00:30:49;;;;;;;6.47;2.43;;;7.70;71.20;;;7.75;58.58;98016.09;6236671;23;20249;-39
2022/02/24 00:33:17;;;;;;;3.90;2.70;;;7.70;71.20;;;7.78;58.66;98013.19;6234628;23;20237;-39
2022/02/24 00:35:45;;;;;;;3.97;2.50;;;7.70;71.20;;;7.81;58.98;98012.06;6236166;23;20034;-38
2022/02/24 00:38:12;;;;;;;3.37;2.40;;;7.70;71.30;;;7.84;58.56;98020.59;6236241;23;20016;-39
2022/02/24 00:40:40;;;;;;;5.40;2.90;;;7.80;71.40;;;7.81;59.19;98028.84;6235372;23;20699;-39
2022/02/24 00:43:11;;;;;;;4.37;2.27;;;7.70;71.30;;;7.81;58.62;98025.31;6236629;23;20034;-39
2022/02/24 00:45:39;;;;;;;4.30;2.53;;;7.70;71.30;;;7.82;58.89;98019.06;6236734;23;20019;-39
2022/02/24 00:48:08;;;;;;;5.90;2.83;;;7.70;71.60;;;7.77;58.37;98031.88;6235313;23;20026;-39
2022/02/24 00:50:38;;;;;;;3.80;2.83;;;7.60;71.70;;;7.71;58.95;98024.47;6236031;23;20016;-38
2022/02/24 00:53:05;;;;;;;5.57;2.70;;;7.50;72.00;;;7.71;59.12;98025.28;6237480;23;20024;-39
2022/02/24 00:55:33;;;;;;;5.50;2.17;;;7.60;72.10;;;7.68;58.76;98023.75;6236892;23;20118;-39
2022/02/24 00:58:01;;;;;;;5.50;2.47;;;7.50;72.00;;;7.67;58.61;98021.25;6236065;23;20078;-39
2022/02/24 01:00:29;;;;;;;4.53;3.00;;;7.50;72.30;;;7.63;59.25;98019.84;6235604;23;20030;-38
2022/02/24 01:02:57;;;;;;;5.27;2.30;;;7.40;72.20;;;7.59;59.36;98011.31;6236208;23;20024;-39
2022/02/24 01:05:26;;;;;;;3.83;2.50;;;7.40;72.30;;;7.63;58.89;98010.06;6233099;23;20022;-39
2022/02/24 01:07:54;;;;;;;3.37;2.40;;;7.50;72.50;;;7.65;58.92;98008.13;6235768;23;20290;-39
2022/02/24 01:10:21;;;;;;;3.97;2.50;;;7.50;72.70;;;7.68;59.14;98007.03;6233824;23;20026;-39
2022/02/24 01:12:49;;;;;;;4.53;2.43;;;7.50;72.50;;;7.73;58.83;98007.44;6236093;23;20210;-38
2022/02/24 01:15:25;;;;;;;2.93;2.27;;;7.60;72.20;;;7.75;59.19;98005.50;6245543;23;20024;-39
2022/02/24 01:17:53;;;;;;;5.03;2.17;;;7.60;72.10;;;7.77;58.77;97995.59;6235629;23;20016;-39
2022/02/24 01:20:21;;;;;;;3.83;2.53;;;7.60;72.10;;;7.78;59.18;97992.00;6234895;23;20020;-39
2022/02/24 01:22:50;;;;;;;4.23;2.17;;;7.60;72.30;;;7.81;58.89;97989.09;6235517;23;20349;-39
2022/02/24 01:25:21;;;;;;;3.93;2.23;;;7.60;72.30;;;7.82;58.83;97990.75;6235046;23;20020;-38
2022/02/24 01:27:49;;;;;;;2.60;1.80;;;7.70;72.30;;;7.84;59.08;97980.00;6234003;23;20192;-39
2022/02/24 01:30:17;;;;;;;4.10;2.10;;;7.70;72.10;;;7.86;58.56;97986.84;6235684;23;20195;-39
2022/02/24 01:32:45;;;;;;;3.17;1.60;;;7.70;72.10;;;7.87;58.71;97974.41;6235206;23;20344;-39
2022/02/24 01:35:13;;;;;;;2.03;1.83;;;7.70;72.00;;;7.88;58.94;97974.28;6233805;23;20738;-39
2022/02/24 01:37:41;;;;;;;2.90;1.97;;;7.70;71.90;;;7.86;58.64;97970.94;6206688;23;20031;-38
2022/02/24 01:40:10;;;;;;;2.93;2.50;;;7.60;72.00;;;7.81;58.77;97965.22;6235076;23;20028;-39
2022/02/24 01:42:37;;;;;;;5.57;2.20;;;7.60;72.10;;;7.82;58.65;97955.44;6235834;23;20020;-38
2022/02/24 01:45:07;;;;;;;3.43;2.07;;;7.50;72.40;;;7.80;58.96;97952.94;6235761;23;20027;-39
2022/02/24 01:47:36;;;;;;;2.70;2.10;;;7.50;72.50;;;7.77;58.67;97950.53;6236066;23;20012;-39
2022/02/24 01:50:06;;;;;;;4.13;3.30;;;7.50;72.50;;;7.78;58.99;97952.22;6235427;23;20019;-39
2022/02/24 01:52:35;;;;;;;2.97;2.03;;;7.50;72.50;;;7.79;58.44;97940.66;6236197;23;20026;-38
2022/02/24 01:55:04;;;;;;;4.43;1.87;;;7.50;72.30;;;7.77;58.99;97936.47;6207934;23;20174;-38
2022/02/24 01:57:33;;;;;;;2.87;2.10;;;7.50;72.20;;;7.79;58.73;97940.66;6209756;23;20020;-39
2022/02/24 02:00:05;;;;;;;4.03;2.23;;;7.50;72.20;;;7.80;58.51;97936.19;6235097;23;20020;-38
2022/02/24 02:02:39;;;;;;;3.67;1.93;;;7.60;71.90;;;7.81;58.84;97932.56;6245305;23;20356;-38
2022/02/24 02:05:08;;;;;;;3.47;1.90;;;7.60;71.90;;;7.82;59.10;97932.44;6236258;23;20016;-39
2022/02/24 02:07:36;;;;;;;3.23;1.80;;;7.60;72.00;;;7.85;58.74;97929.53;6234827;23;20023;-38
2022/02/24 02:10:04;;;;;;;3.57;1.90;;;7.60;72.00;;;7.91;58.77;97930.78;6234287;23;20016;-39
2022/02/24 02:12:53;;;;;;;3.33;1.80;;;7.70;72.00;;;7.95;58.56;97918.06;6234301;23;20319;-39
2022/02/24 02:15:22;;;;;;;2.13;1.70;;;7.70;71.80;;;7.97;58.81;97906.38;6208027;23;20338;-38
2022/02/24 02:17:50;;;;;;;3.23;1.90;;;7.70;71.90;;;7.96;58.64;97909.16;6209408;23;20018;-39
2022/02/24 02:20:20;;;;;;;3.83;1.80;;;7.70;72.10;;;7.96;58.78;97911.81;6234521;23;20040;-39
2022/02/24 02:22:54;;;;;;;4.13;2.30;;;7.70;72.10;;;7.90;58.59;97897.28;6209691;23;20027;-39
2022/02/24 02:25:22;;;;;;;3.55;1.80;;;7.60;72.20;;;7.93;59.01;97899.66;6218612;23;20012;-39
2022/02/24 02:27:52;;;;;;;2.90;1.90;;;7.60;72.40;;;7.92;58.89;97895.31;6235606;23;20012;-38
2022/02/24 02:30:21;;;;;;;2.17;1.80;;;7.60;72.60;;;7.94;58.91;97887.25;6234286;23;20019;-39
2022/02/24 02:32:49;;;;;;;3.33;1.97;;;7.60;72.50;;;7.94;59.04;97888.06;6209411;23;20043;-39
2022/02/24 02:35:17;;;;;;;4.03;2.20;;;7.70;72.50;;;7.95;58.89;97884.47;6234474;23;20031;-39
2022/02/24 02:37:45;;;;;;;2.30;1.80;;;7.70;72.50;;;7.94;58.71;97885.41;6237675;23;20024;-39
2022/02/24 02:40:13;;;;;;;2.50;1.63;;;7.60;72.60;;;7.92;58.93;97875.94;6211031;23;20030;-39
2022/02/24 02:42:42;;;;;;;4.57;1.70;;;7.60;72.80;;;7.92;58.86;97875.94;6238106;23;20205;-40
2022/02/24 02:45:10;;;;;;;2.60;1.90;;;7.60;73.00;;;7.90;58.87;97870.78;6236663;23;20322;-39
2022/02/24 02:47:38;;;;;;;5.47;2.30;;;7.50;72.90;;;7.89;59.01;97867.28;6237816;23;20309;-39
2022/02/24 02:50:07;;;;;;;3.83;1.87;;;7.50;73.20;;;7.88;58.83;97870.06;6236212;23;20018;-39
2022/02/24 02:52:42;;;;;;;3.00;2.00;;;7.50;73.30;;;7.87;59.34;97863.09;6247705;23;20031;-39
2022/02/24 02:55:12;;;;;;;4.40;2.10;;;7.50;73.40;;;7.85;59.09;97859.75;6236626;23;20016;-40
2022/02/24 02:57:40;;;;;;;3.43;2.17;;;7.50;73.50;;;7.86;59.31;97854.31;6235729;23;20020;-40
2022/02/24 03:00:12;;;;;;;3.67;1.80;;;7.50;73.60;;;7.83;58.93;97851.94;6210667;23;20210;-40
2022/02/24 03:02:41;;;;;;;3.03;2.20;;;7.40;73.70;;;7.81;59.28;97853.03;6234924;23;20023;-39
2022/02/24 03:05:10;;;;;;;4.20;2.30;;;7.40;74.10;;;7.79;59.47;97852.34;6235003;23;20044;-39
2022/02/24 03:07:38;;;;;;;2.93;2.60;;;7.40;74.10;;;7.78;59.04;97856.00;6235520;23;20314;-39
2022/02/24 03:10:07;;;;;;;3.97;2.37;;;7.40;74.10;;;7.75;59.54;97851.78;6236901;23;20012;-39
2022/02/24 03:12:36;;;;;;;3.13;2.17;;;7.40;74.20;;;7.73;59.42;97844.94;6237154;23;20024;-39
2022/02/24 03:15:15;;;;;;;4.23;2.30;;;7.30;74.50;;;7.71;59.75;97841.59;6235756;23;20022;-39
2022/02/24 03:17:44;;;;;;;3.80;1.90;;;7.30;74.80;;;7.66;59.37;97834.91;6246404;23;20342;-39
2022/02/24 03:20:14;;;;;;;3.37;2.43;;;7.20;75.10;;;7.66;59.45;97837.56;6236311;23;20034;-38
2022/02/24 03:22:45;;;;;;;3.90;2.27;;;7.20;75.10;;;7.64;59.79;97836.88;6236312;23;20020;-39
2022/02/24 03:25:13;;;;;;;3.87;2.67;;;7.20;75.10;;;7.62;59.58;97835.34;6234960;23;20046;-39
2022/02/24 03:27:41;;;;;;;3.80;2.33;;;7.20;75.50;;;7.61;59.67;97829.19;6235030;23;20024;-39
2022/02/24 03:30:09;;;;;;;5.90;2.40;;;7.10;75.60;;;7.59;59.80;97825.00;6210542;23;20020;-39
2022/02/24 03:32:37;;;;;;;3.53;2.53;;;7.10;75.80;;;7.58;59.97;97823.31;6236377;23;20078;-39
2022/02/24 03:35:08;;;;;;;5.03;2.40;;;7.20;75.60;;;7.52;59.87;97824.69;6209504;23;20028;-39
2022/02/24 03:37:36;;;;;;;3.30;2.03;;;7.10;75.70;;;7.48;59.89;97818.00;6236556;23;20027;-39
2022/02/24 03:40:05;;;;;;;3.43;2.07;;;7.10;76.00;;;7.51;60.11;97812.44;6235784;23;20341;-38
2022/02/24 03:42:33;;;;;;;3.90;2.80;;;7.10;76.00;;;7.53;60.32;97809.66;6236521;23;20042;-39
2022/02/24 03:45:02;;;;;;;3.83;2.40;;;7.10;75.60;;;7.47;60.39;97809.22;6235778;23;20022;-39
2022/02/24 03:47:30;;;;;;;2.53;1.83;;;7.10;75.80;;;7.45;59.82;97803.22;6210003;23;20016;-38
2022/02/24 03:50:00;;;;;;;3.30;1.87;;;7.10;75.70;;;7.45;60.29;97807.69;6236473;23;20348;-39
2022/02/24 03:52:27;;;;;;;4.30;2.40;;;7.10;75.60;;;7.44;60.19;97809.53;6209710;23;20259;-38
2022/02/24 03:54:55;;;;;;;5.70;2.90;;;7.10;75.40;;;7.45;60.29;97802.41;6235712;23;20024;-38
2022/02/24 03:57:23;;;;;;;8.20;4.80;;;7.10;75.40;;;7.45;59.95;97794.44;6235194;23;20031;-39
2022/02/24 03:59:51;;;;;;;13.90;6.27;;;7.10;75.50;;;7.44;60.38;97798.06;6235671;23;20028;-38
2022/02/24 04:02:19;;;;;;;21.13;8.93;;;7.10;75.40;;;7.44;60.41;97788.31;6236667;23;20027;-38
2022/02/24 04:04:47;;;;;;;24.87;11.73;;;7.10;75.20;;;7.44;59.87;97788.31;6237116;23;20270;-38
2022/02/24 04:07:15;;;;;;;20.33;10.10;;;7.10;75.10;;;7.45;59.84;97794.44;6234678;23;20023;-39
2022/02/24 04:09:43;;;;;;;13.03;7.63;;;7.10;75.10;;;7.45;60.03;97792.63;6236159;23;20016;-39
2022/02/24 04:12:15;;;;;;;12.87;6.97;;;7.10;74.90;;;7.46;60.07;97789.03;6233879;23;20229;-39
2022/02/24 04:14:45;;;;;;;17.93;8.87;;;7.20;74.70;;;7.44;60.19;97776.88;6234829;23;20034;-39
2022/02/24 04:17:14;;;;;;;13.73;7.90;;;7.20;74.70;;;7.40;60.19;97778.13;6236652;23;20016;-39
2022/02/24 04:19:43;;;;;;;11.50;5.83;;;7.10;75.00;;;7.41;59.89;97775.34;6234658;23;20049;-39
2022/02/24 04:22:11;;;;;;;11.57;6.63;;;7.10;75.10;;;7.39;60.37;97768.53;6246468;23;20253;-39
2022/02/24 04:24:39;;;;;;;7.10;4.37;;;7.10;75.40;;;7.39;60.09;97771.16;6234692;23;20024;-39
2022/02/24 04:27:10;;;;;;;8.27;5.30;;;7.10;75.60;;;7.35;60.41;97762.66;6234641;23;20024;-39
2022/02/24 04:29:39;;;;;;;9.13;5.03;;;7.00;75.70;;;7.35;59.87;97767.97;6233376;23;20209;-39
2022/02/24 04:32:07;;;;;;;6.07;3.57;;;7.00;76.00;;;7.34;60.01;97768.91;6236700;23;20070;-39
2022/02/24 04:34:35;;;;;;;5.27;3.90;;;6.90;76.00;;;7.29;60.27;97766.69;6236389;23;20336;-39
2022/02/24 04:37:04;;;;;;;4.50;3.00;;;6.90;76.20;;;7.25;60.32;97759.13;6236526;23;20326;-40
2022/02/24 04:39:33;;;;;;;5.07;3.40;;;6.90;76.50;;;7.25;60.70;97753.84;6232682;23;20016;-39
2022/02/24 04:42:01;;;;;;;6.30;2.80;;;6.90;76.50;;;7.24;60.80;97752.19;6235812;23;20229;-39
2022/02/24 04:44:28;;;;;;;5.33;2.93;;;6.90;76.20;;;7.26;60.60;97744.94;6210513;23;20352;-39
2022/02/24 04:46:56;;;;;;;3.63;2.67;;;7.00;76.00;;;7.27;60.12;97744.81;6236769;23;20042;-39
2022/02/24 04:49:25;;;;;;;3.97;2.83;;;7.00;75.80;;;7.30;60.61;97743.69;6235957;23;20205;-39
2022/02/24 04:51:53;;;;;;;3.67;2.93;;;7.00;75.70;;;7.29;60.72;97742.03;6209872;23;20016;-39
2022/02/24 04:54:24;;;;;;;4.60;3.33;;;7.00;75.80;;;7.29;60.46;97724.31;6209492;23;20022;-39
2022/02/24 04:56:51;;;;;;;4.87;2.97;;;7.00;75.90;;;7.28;60.20;97721.81;6235211;23;20016;-39
2022/02/24 04:59:19;;;;;;;3.87;2.10;;;6.90;75.90;;;7.26;59.85;97718.47;6208591;23;20346;-39
2022/02/24 05:01:47;;;;;;;7.90;5.00;;;6.90;76.20;;;7.23;59.90;97708.13;6234898;23;20028;-39
2022/02/24 05:04:16;;;;;;;7.93;4.87;;;6.80;76.20;;;7.17;60.32;97703.41;6236010;23;20230;-39
2022/02/24 05:06:44;;;;;;;5.80;3.50;;;6.70;76.70;;;7.10;60.61;97700.47;6236299;23;20022;-39
2022/02/24 05:09:12;;;;;;;5.00;2.70;;;6.70;77.10;;;7.03;60.82;97702.81;6234678;23;20012;-39
2022/02/24 05:11:40;;;;;;;5.07;2.93;;;6.60;77.60;;;7.01;60.86;97703.94;6236032;23;20018;-39
2022/02/24 05:14:08;;;;;;;5.73;2.57;;;6.60;77.60;;;7.01;60.42;97698.66;6234880;23;20201;-38
2022/02/24 05:16:36;;;;;;;4.17;2.53;;;6.60;77.10;;;7.02;61.11;97697.69;6234914;23;20024;-39
2022/02/24 05:19:04;;;;;;;4.43;3.10;;;6.70;77.10;;;6.99;60.67;97685.53;6235492;23;20026;-39
2022/02/24 05:21:32;;;;;;;4.47;2.60;;;6.70;77.00;;;6.98;61.15;97691.81;6234744;23;20344;-39
2022/02/24 05:24:00;;;;;;;4.53;2.57;;;6.60;77.10;;;6.97;60.96;97686.66;6234152;23;20024;-39
2022/02/24 05:26:31;;;;;;;5.37;2.90;;;6.60;77.20;;;6.95;61.22;97678.84;6245514;23;20024;-39
2022/02/24 05:28:59;;;;;;;5.97;2.97;;;6.60;77.40;;;6.94;60.73;97682.50;6234773;23;20306;-39
2022/02/24 05:31:27;;;;;;;4.33;2.40;;;6.60;77.20;;;6.94;61.26;97681.63;6234346;23;20030;-39
2022/02/24 05:33:55;;;;;;;3.33;2.10;;;6.60;77.00;;;6.96;60.92;97685.84;6234545;23;20036;-39
2022/02/24 05:36:22;;;;;;;5.40;2.93;;;6.70;76.90;;;6.96;60.98;97687.63;6235309;23;20030;-38
2022/02/24 05:38:51;;;;;;;3.70;3.00;;;6.70;77.00;;;6.92;60.92;97686.22;6235920;23;20392;-39
2022/02/24 05:41:19;;;;;;;5.43;3.33;;;6.60;76.90;;;6.92;60.97;97678.28;6234389;23;20028;-39
2022/02/24 05:43:50;;;;;;;4.43;2.33;;;6.60;77.00;;;6.93;61.25;97670.22;6236058;23;20219;-39
2022/02/24 05:46:18;;;;;;;7.43;2.77;;;6.70;77.00;;;6.95;60.69;97670.91;6234566;23;20012;-38
2022/02/24 05:48:46;;;;;;;5.07;2.80;;;6.70;76.80;;;6.97;61.27;97668.13;6233961;23;20018;-38
2022/02/24 05:51:14;;;;;;;3.80;2.60;;;6.70;76.70;;;6.94;60.82;97661.31;6235438;23;20019;-39
2022/02/24 05:53:42;;;;;;;4.97;2.30;;;6.70;76.80;;;6.92;60.73;97671.22;6233989;23;20016;-38
2022/02/24 05:56:10;;;;;;;4.00;2.60;;;6.60;77.00;;;6.93;61.41;97669.38;6235953;23;20024;-38
2022/02/24 05:58:38;;;;;;;7.87;2.80;;;6.60;77.10;;;6.87;60.93;97661.00;6236973;23;20020;-38
2022/02/24 06:01:06;;;;;;;5.57;3.13;;;6.50;77.40;;;6.86;61.38;97661.16;6234984;23;20322;-38
2022/02/24 06:03:34;;;;;;;4.20;2.70;;;6.50;77.70;;;6.84;61.15;97657.81;6235042;23;20233;-39
2022/02/24 06:06:03;;;;;;;3.90;2.50;;;6.50;77.70;;;6.83;61.42;97659.63;6233448;23;20015;-38
2022/02/24 06:08:30;;;;;;;3.20;2.37;;;6.50;77.70;;;6.82;61.15;97657.94;6235209;23;20364;-38
2022/02/24 06:10:58;;;;;;;4.53;2.63;;;6.50;77.60;;;6.84;61.20;97655.16;6234651;23;20328;-39
2022/02/24 06:13:27;;;;;;;7.60;3.63;;;6.60;77.50;;;6.82;61.53;97672.97;6235520;23;20184;-38
2022/02/24 06:15:54;;;;;;;6.30;2.87;;;6.50;77.60;;;6.82;60.89;97671.16;6207660;23;20034;-38
2022/02/24 06:18:23;;;;;;;4.03;3.00;;;6.60;77.70;;;6.83;61.70;97688.72;6236428;23;20023;-37
2022/02/24 06:20:53;;;;;;;5.13;2.60;;;6.60;77.60;;;6.85;61.63;97681.50;6233296;23;20028;-37
2022/02/24 06:23:21;;;;;;;4.57;3.57;;;6.60;77.30;;;6.88;61.90;97680.38;6234916;23;20357;-38
2022/02/24 06:25:49;;;;;;;4.83;2.50;;;6.70;77.30;;;6.92;61.23;97679.16;6235251;23;20021;-37
2022/02/24 06:28:16;;;;;;;4.00;2.33;;;6.80;77.00;;;6.95;61.16;97667.44;6234988;23;20202;-38
2022/02/24 06:30:45;;;;;;;4.13;2.23;;;6.80;76.80;;;6.97;61.51;97662.84;6207658;23;20379;-38
2022/02/24 06:33:13;;;;;;;4.23;2.40;;;6.80;76.50;;;7.02;61.18;97660.63;6235496;23;20221;-38
2022/02/24 06:35:41;;;;;;;3.67;2.40;;;6.90;76.40;;;7.07;61.01;97666.31;6232545;23;20028;-37
2022/02/24 06:38:08;;;;;;;4.17;2.43;;;7.00;76.00;;;7.10;60.79;97658.13;6209679;23;20034;-38
2022/02/24 06:40:38;;;;;;;4.50;2.20;;;7.00;75.80;;;7.11;61.14;97662.41;6234248;23;20020;-38
2022/02/24 06:43:06;;;;;;;4.03;2.03;;;7.00;75.60;;;7.14;60.90;97663.97;6208814;23;20324;-37
2022/02/24 06:45:34;;;;;;;4.43;2.30;;;7.00;75.50;;;7.16;60.71;97667.31;6234228;23;20020;-37
2022/02/24 06:48:02;;;;;;;3.37;2.10;;;7.00;75.20;;;7.16;61.33;97654.91;6233532;23;20024;-37
2022/02/24 06:50:30;;;;;;;3.23;2.63;;;7.00;75.20;;;7.15;61.04;97655.03;6233780;23;20012;-37
2022/02/24 06:53:01;;;;;;;3.40;2.70;;;7.10;75.20;;;7.18;60.70;97646.84;6244524;23;20030;-37
2022/02/24 06:55:29;;;;;;;4.73;2.00;;;7.10;75.30;;;7.21;60.60;97642.09;6234710;23;20225;-38
2022/02/24 06:57:57;;;;;;;3.30;1.97;;;7.10;75.00;;;7.23;60.63;97640.16;6207372;23;20028;-38
2022/02/24 07:00:25;;;;;;;2.63;2.30;;;7.20;74.80;;;7.28;60.78;97645.00;6233725;23;20024;-39
2022/02/24 07:02:53;;;;;;;4.70;2.80;;;7.10;74.80;;;7.28;60.56;97642.34;6235131;23;20650;-39
2022/02/24 07:05:22;;;;;;;3.17;2.30;;;7.20;74.70;;;7.31;60.56;97642.09;6233969;23;20319;-39
2022/02/24 07:07:50;;;;;;;4.70;2.30;;;7.20;74.60;;;7.32;61.00;97627.03;6234245;23;20202;-39
2022/02/24 07:10:22;;;;;;;2.47;1.90;;;7.20;74.80;;;7.34;60.15;97630.38;6244774;23;20423;-39
2022/02/24 07:12:50;;;;;;;5.13;2.67;;;7.20;74.80;;;7.35;60.47;97630.22;6232921;23;20030;-39
2022/02/24 07:15:18;;;;;;;5.17;2.90;;;7.10;74.80;;;7.37;60.79;97624.81;6208962;23;20012;-39
2022/02/24 07:17:48;;;;;;;3.30;2.20;;;7.20;75.10;;;7.37;60.41;97635.41;6233877;23;20306;-39
2022/02/24 07:20:17;;;;;;;3.50;1.87;;;7.20;75.10;;;7.41;60.45;97626.19;6208786;23;20020;-40
2022/02/24 07:22:46;;;;;;;3.60;2.53;;;7.20;75.10;;;7.41;60.50;97627.00;6235061;23;20020;-38
2022/02/24 07:25:14;;;;;;;5.60;3.10;;;7.20;75.10;;;7.41;60.55;97619.06;6234796;23;20027;-38
2022/02/24 07:27:43;;;;;;;3.80;2.60;;;7.20;75.20;;;7.40;60.85;97630.63;6237113;23;20016;-38
2022/02/24 07:30:13;;;;;;;3.03;2.30;;;7.20;75.20;;;7.40;60.96;97635.09;6236382;23;20024;-38
2022/02/24 07:32:42;;;;;;;5.97;2.90;;;7.20;75.30;;;7.38;60.81;97629.94;6209410;23;20035;-38
2022/02/24 07:35:12;;;;;;;6.70;3.73;;;7.20;75.40;;;7.37;60.68;97625.63;6235367;23;20018;-39
2022/02/24 07:37:40;;;;;;;5.27;2.23;;;7.10;75.50;;;7.40;60.67;97624.50;6209130;23;20364;-38
2022/02/24 07:40:10;;;;;;;6.80;2.53;;;7.20;75.40;;;7.42;60.65;97618.06;6232971;23;20307;-37
2022/02/24 07:42:38;;;;;;;4.17;2.43;;;7.20;75.50;;;7.46;60.47;97619.50;6238113;23;20340;-38
2022/02/24 07:45:07;;;;;;;3.83;2.80;;;7.30;75.40;;;7.50;60.91;97612.06;6236485;23;20373;-37
2022/02/24 07:47:35;;;;;;;5.67;3.00;;;7.30;75.30;;;7.54;60.91;97612.63;6235669;23;20030;-38
2022/02/24 07:50:06;;;;;;;5.17;2.90;;;7.40;75.30;;;7.58;60.50;97603.41;6236333;23;20020;-37
2022/02/24 07:52:34;;;;;;;5.17;2.90;;;7.40;75.20;;;7.61;60.51;97603.13;6235609;23;20056;-38
2022/02/24 07:55:02;;;;;;;3.90;2.43;;;7.40;75.30;;;7.66;60.56;97595.59;6236246;23;20024;-38
2022/02/24 07:57:29;;;;;;;4.80;3.70;;;7.50;75.00;;;7.70;60.51;97596.97;6209879;23;20024;-38
2022/02/24 07:59:57;;;;;;;6.50;3.47;;;7.60;74.60;;;7.73;60.28;97587.91;6235973;23;20225;-38
2022/02/24 08:02:25;;;;;;;5.57;2.60;;;7.60;74.60;;;7.75;60.41;97589.41;6236929;23;20024;-38
2022/02/24 08:04:53;;;;;;;4.80;3.60;;;7.60;74.50;;;7.77;60.34;97586.63;6235076;23;20012;-38
2022/02/24 08:07:22;;;;;;;6.97;3.40;;;7.60;74.50;;;7.81;60.22;97577.41;6235025;23;20022;-38
2022/02/24 08:09:50;;;;;;;5.87;3.50;;;7.70;74.50;;;7.82;60.30;97573.78;6236825;23;20018;-38
2022/02/24 08:15:09;;;;;;;5.57;2.97;;;7.70;74.20;;;7.86;60.65;97583.94;6245831;23;20016;-38
2022/02/24 08:17:37;;;;;;;6.90;3.50;;;7.70;74.60;;;7.86;60.60;97578.63;6233984;23;20020;-39
2022/02/24 08:20:07;;;;;;;4.13;2.67;;;7.80;74.60;;;7.88;60.62;97579.31;6238322;23;20121;-38
2022/02/24 08:22:38;;;;;;;3.83;2.57;;;7.80;74.40;;;7.91;60.51;97575.56;6251349;23;20016;-39
2022/02/24 08:25:09;;;;;;;4.03;2.63;;;7.90;74.30;;;7.96;60.49;97570.63;6250987;23;20332;-39
2022/02/24 08:27:39;;;;;;;4.87;2.60;;;7.90;74.10;;;7.99;60.73;97572.19;6251356;23;20186;-39
2022/02/24 08:30:17;;;;;;;5.07;2.93;;;8.00;73.90;;;8.03;60.50;97570.91;6179549;23;20024;-39
2022/02/24 08:32:54;;;;;;;5.10;2.93;;;8.00;73.80;;;8.02;60.18;97567.41;6235136;23;20067;-39
2022/02/24 08:35:24;;;;;;;5.13;3.23;;;8.00;73.50;;;8.08;60.73;97555.38;6251704;23;20023;-39
2022/02/24 08:37:55;;;;;;;4.50;3.33;;;8.10;73.80;;;8.12;60.32;97556.75;6251531;23;20055;-38
2022/02/24 08:40:28;;;;;;;4.57;2.67;;;8.10;73.50;;;8.18;60.34;97558.81;6235962;23;20016;-38
2022/02/24 08:43:08;;;;;;;3.93;2.50;;;8.20;73.50;;;8.23;60.38;97553.88;6247469;23;20020;-39
2022/02/24 08:45:48;;;;;;;4.37;2.50;;;8.20;73.50;;;8.26;60.29;97552.78;6250592;23;20024;-38
2022/02/24 08:48:18;;;;;;;4.37;2.40;;;8.30;73.10;;;8.31;60.40;97552.31;6225268;23;20329;-38
2022/02/24 08:50:48;;;;;;;8.00;2.70;;;8.30;73.90;;;8.36;60.13;97552.72;6225077;23;20328;-38
2022/02/24 08:53:21;;;;;;;;;;;8.40;72.50;;;8.32;60.08;97552.19;6236893;23;20020;-39
2022/02/24 08:55:51;;;;;;;3.80;2.40;;;8.30;72.50;;;8.38;60.32;97545.44;6251462;23;19966;-39
2022/02/24 08:58:24;;;;;;;4.78;2.50;;;8.40;72.80;;;8.45;60.28;97544.72;6249621;23;20016;-39
2022/02/24 09:00:59;;;;;;;4.27;2.60;;;8.50;73.00;;;8.52;60.38;97544.13;6258672;23;20047;-39
2022/02/24 09:03:27;;;;;;;4.43;2.60;;;8.60;72.80;;;8.56;60.01;97546.31;6224071;23;20024;-38
2022/02/24 09:06:00;;;;;;;6.20;2.70;;;8.60;72.30;;;8.62;60.01;97543.03;6260888;23;20016;-39
2022/02/24 09:08:33;;;;;;;4.13;3.03;;;8.70;72.10;;;8.68;59.53;97538.94;6223696;23;20274;-39
2022/02/24 09:11:02;;;;;;;4.40;2.67;;;8.80;72.00;;;8.73;59.64;97534.03;6234544;23;20020;-39
2022/02/24 09:13:32;;;;;;;3.17;2.23;;;8.80;71.50;;;8.81;59.74;97530.63;6250240;23;20318;-39
2022/02/24 09:16:01;;;;;;;3.03;2.20;;;8.90;71.80;;;8.86;59.61;97517.72;6226825;23;20016;-39
2022/02/24 09:18:37;;;;;;;2.87;1.90;;;8.90;71.40;;;8.91;59.14;97510.13;6222827;23;20230;-39
2022/02/24 09:21:09;;;;;;;3.40;2.10;;;9.00;70.90;;;9.01;59.43;97515.34;6252902;23;20018;-39
2022/02/24 09:23:44;;;;;;;4.23;2.10;;;9.10;71.20;;;9.04;58.89;97509.72;6260899;23;20012;-40
2022/02/24 09:26:16;;;;;;;7.47;2.10;;;9.20;70.10;;;9.08;58.64;97505.78;6250641;23;20026;-39
2022/02/24 09:28:45;;;;;;;3.67;2.53;;;9.30;69.80;;;9.17;58.99;97494.22;6251526;23;20018;-39
2022/02/24 09:31:15;;;;;;;4.97;1.93;;;9.40;69.80;;;9.26;58.81;97497.75;6223075;23;20350;-39
2022/02/24 09:33:45;;;;;;;3.73;2.27;;;9.50;69.90;;;9.33;58.65;97490.00;6225073;23;20184;-39
2022/02/24 09:36:14;;;;;;;2.93;2.43;;;9.50;69.80;;;9.40;58.56;97491.03;6251688;23;20329;-39
2022/02/24 09:38:42;;;;;;;4.17;1.73;;;9.60;69.50;;;9.42;58.08;97494.34;6250940;23;20024;-39
2022/02/24 09:41:11;;;;;;;5.23;2.10;;;9.60;68.10;;;9.52;58.19;97486.28;6250800;23;20016;-39
2022/02/24 09:43:39;;;;;;;3.03;1.77;;;9.70;69.10;;;9.56;57.97;97485.81;6224860;23;20223;-39
2022/02/24 09:46:11;;;;;;;4.30;2.17;;;9.70;68.60;;;9.62;57.99;97481.69;6260610;23;20012;-38
2022/02/24 09:48:42;;;;;;;4.13;2.37;;;9.80;68.40;;;9.65;57.67;97489.31;6260897;23;20012;-38
2022/02/24 09:51:15;;;;;;;3.67;2.13;;;9.80;68.20;;;9.73;58.28;97475.25;6223942;23;20282;-39
2022/02/24 09:53:46;;;;;;;5.07;3.13;;;9.90;68.60;;;9.77;57.85;97471.25;6261239;23;20012;-39
2022/02/24 09:56:19;;;;;;;4.37;1.90;;;9.90;68.60;;;9.82;57.88;97464.47;6251125;23;20064;-38
2022/02/24 09:58:50;;;;;;;3.42;1.85;;;10.00;68.70;;;9.88;57.99;97470.16;6261011;23;20030;-38
2022/02/24 10:01:18;;;;;;;5.10;2.43;;;10.00;68.60;;;9.96;58.07;97457.69;6250375;23;20214;-39
2022/02/24 10:03:57;;;;;;;5.80;2.67;;;10.10;68.80;;;10.00;57.33;97451.09;6250314;23;20020;-39
2022/02/24 10:06:45;;;;;;;4.23;2.20;;;10.20;67.50;;;10.05;57.58;97453.25;6261227;23;20286;-39
2022/02/24 10:09:21;;;;;;;3.07;2.23;;;10.30;67.10;;;10.14;57.74;97456.75;6260532;23;20012;-39
2022/02/24 10:11:50;;;;;;;4.40;2.10;;;10.30;67.70;;;10.18;57.51;97456.28;6250421;23;20016;-38
2022/02/24 10:14:21;;;;;;;2.73;1.80;;;10.40;67.40;;;10.25;57.57;97446.66;6223932;23;20022;-39
2022/02/24 10:17:04;;;;;;;3.50;1.60;;;10.40;67.60;;;10.27;56.93;97443.81;6261213;23;20300;-39
2022/02/24 10:19:40;;;;;;;4.57;2.83;;;10.50;66.30;;;10.34;57.19;97438.72;6231742;23;20314;-39
2022/02/24 10:22:31;;;;;;;3.50;1.87;;;10.50;67.00;;;10.41;57.10;97437.03;6259175;23;20012;-38
2022/02/24 10:25:11;;;;;;;4.73;2.17;;;10.60;66.60;;;10.46;56.17;97432.06;6225154;23;20016;-38
2022/02/24 10:27:40;;;;;;;4.03;1.90;;;10.70;66.20;;;10.50;56.75;97430.72;6260338;23;20020;-38
2022/02/24 10:30:19;;;;;;;4.67;1.63;;;10.60;66.60;;;10.54;56.76;97429.38;6260259;23;20012;-39
2022/02/24 10:32:52;;;;;;;3.47;2.37;;;10.70;66.20;;;10.57;55.88;97425.59;6223509;23;20016;-38
2022/02/24 10:35:34;;;;;;;3.73;1.80;;;10.70;65.70;;;10.62;55.54;97424.09;6235931;23;20024;-38
2022/02/24 10:38:11;;;;;;;5.40;2.40;;;10.90;64.70;;;10.73;55.64;97427.41;6224890;23;20217;-39
2022/02/24 10:40:47;;;;;;;3.93;2.73;;;11.00;65.50;;;10.80;54.37;97425.75;6246716;23;20028;-38
2022/02/24 10:43:21;;;;;;;4.15;1.75;;;11.10;63.90;;;10.89;55.82;97426.56;6260634;23;20329;-39
2022/02/24 10:46:13;;;;;;;4.47;2.10;;;11.20;64.10;;;11.01;55.32;97414.53;6261122;23;20018;-39